Time;durP1;ratioP1;P1;durP2;ratioP2;P2;SDS_P1;SDS_P2;PMS_P1;PMS_P2;Temp;Humidity;BMP_temperature;BMP_pressure;BME280_temperature;BME280_humidity;BME280_pressure;Samples;Min_cycle;Max_cycle;Signal;HPM_P1;HPM_P2
2023/12/07 04:12:37;;;;;;;;;30.25;26.25;;;;;;;;5744430;22;46440;-70
2023/12/07 04:15:02;;;;;;;;;24.50;21.75;;;;;;;;5054994;28;46229;-70
2023/12/07 04:17:27;;;;;;;;;27.75;23.25;;;;;;;;5058449;28;46159;-70
2023/12/07 04:19:52;;;;;;;;;26.75;22.50;;;;;;;;5060004;28;45243;-70
2023/12/07 04:22:17;;;;;;;;;31.00;27.00;;;;;;;;5060035;28;45304;-71
2023/12/07 04:24:43;;;;;;;;;30.75;25.00;;;;;;;;5059349;28;45336;-71
2023/12/07 04:27:08;;;;;;;;;27.00;21.25;;;;;;;;5059359;28;45259;-71
2023/12/07 04:29:33;;;;;;;;;30.75;22.75;;;;;;;;5059077;28;45547;-71
2023/12/07 04:31:58;;;;;;;;;31.25;25.25;;;;;;;;5059774;28;45844;-70
2023/12/07 04:34:23;;;;;;;;;31.50;24.25;;;;;;;;5059789;28;45260;-71
2023/12/07 04:36:49;;;;;;;;;28.50;22.00;;;;;;;;5060011;28;45423;-71
2023/12/07 04:39:14;;;;;;;;;17.00;15.25;;;;;;;;5059226;28;45256;-71
2023/12/07 04:41:40;;;;;;;;;18.25;16.00;;;;;;;;5059817;28;45305;-71
2023/12/07 04:44:05;;;;;;;;;24.75;21.75;;;;;;;;5059513;28;45299;-71
2023/12/07 04:46:30;;;;;;;;;28.25;23.75;;;;;;;;5059328;28;45514;-72
2023/12/07 04:48:55;;;;;;;;;26.50;24.00;;;;;;;;5059500;28;45396;-71
2023/12/07 04:51:20;;;;;;;;;28.75;22.25;;;;;;;;5060253;28;45215;-72
2023/12/07 04:53:46;;;;;;;;;20.75;19.75;;;;;;;;5059043;28;45366;-71
2023/12/07 04:56:12;;;;;;;;;22.50;18.25;;;;;;;;5059976;28;45163;-71
2023/12/07 04:58:37;;;;;;;;;20.00;17.50;;;;;;;;5058794;28;45359;-71
2023/12/07 05:01:02;;;;;;;;;24.25;22.75;;;;;;;;5060322;28;45172;-71
2023/12/07 05:03:27;;;;;;;;;31.25;24.25;;;;;;;;5058475;28;45436;-71
2023/12/07 05:05:53;;;;;;;;;25.25;22.25;;;;;;;;5057840;28;45474;-71
2023/12/07 05:08:18;;;;;;;;;23.00;22.50;;;;;;;;5058984;28;45195;-70
2023/12/07 05:10:43;;;;;;;;;21.50;20.25;;;;;;;;5059648;28;45509;-70
2023/12/07 05:13:08;;;;;;;;;26.75;18.50;;;;;;;;5058479;28;45359;-70
2023/12/07 05:15:34;;;;;;;;;33.75;25.00;;;;;;;;5059272;28;45373;-70
2023/12/07 05:17:59;;;;;;;;;30.50;24.50;;;;;;;;5058407;28;45284;-70
2023/12/07 05:20:26;;;;;;;;;30.00;24.50;;;;;;;;5057129;28;45401;-70
2023/12/07 05:22:51;;;;;;;;;26.00;20.50;;;;;;;;5058843;28;45322;-70
2023/12/07 05:25:16;;;;;;;;;29.25;23.25;;;;;;;;5059123;28;45226;-70
2023/12/07 05:27:42;;;;;;;;;30.75;27.25;;;;;;;;5058658;28;45742;-70
2023/12/07 05:30:07;;;;;;;;;27.50;22.25;;;;;;;;5057816;28;45512;-69
2023/12/07 05:32:32;;;;;;;;;26.00;18.00;;;;;;;;5053731;28;45762;-70
2023/12/07 05:34:58;;;;;;;;;27.75;21.75;;;;;;;;5058751;28;47000;-70
2023/12/07 05:37:23;;;;;;;;;23.75;22.25;;;;;;;;5055076;28;45595;-71
2023/12/07 05:39:48;;;;;;;;;25.75;21.75;;;;;;;;5059137;28;46317;-72
2023/12/07 05:42:14;;;;;;;;;25.25;22.75;;;;;;;;5056114;28;45283;-70
2023/12/07 05:44:39;;;;;;;;;25.50;23.00;;;;;;;;5058778;28;45558;-70
2023/12/07 05:47:04;;;;;;;;;23.25;20.75;;;;;;;;5072012;28;45515;-70
2023/12/07 05:49:29;;;;;;;;;23.25;21.75;;;;;;;;5060265;28;45187;-70
2023/12/07 05:51:55;;;;;;;;;23.75;18.50;;;;;;;;5060771;28;45343;-70
2023/12/07 05:54:23;;;;;;;;;17.25;17.25;;;;;;;;5062150;28;45211;-70
2023/12/07 05:56:48;;;;;;;;;24.25;18.00;;;;;;;;5061223;28;45406;-70
2023/12/07 05:59:13;;;;;;;;;27.00;21.50;;;;;;;;5061992;28;45417;-70
2023/12/07 06:01:38;;;;;;;;;24.00;21.75;;;;;;;;5061837;28;45157;-71
2023/12/07 06:04:03;;;;;;;;;23.00;21.50;;;;;;;;5061975;28;46327;-70
2023/12/07 06:06:28;;;;;;;;;31.00;26.00;;;;;;;;5059678;28;44869;-70
2023/12/07 06:08:54;;;;;;;;;24.25;22.00;;;;;;;;5061468;28;45370;-70
2023/12/07 06:11:19;;;;;;;;;30.75;25.25;;;;;;;;5061851;28;45227;-71
2023/12/07 06:13:44;;;;;;;;;30.00;23.50;;;;;;;;5059571;28;45504;-70
2023/12/07 06:16:13;;;;;;;;;26.25;22.00;;;;;;;;5062075;28;45210;-71
2023/12/07 06:18:38;;;;;;;;;28.25;21.25;;;;;;;;5061421;28;45254;-73
2023/12/07 06:21:04;;;;;;;;;33.50;23.25;;;;;;;;5061769;28;46647;-72
2023/12/07 06:23:29;;;;;;;;;25.25;23.50;;;;;;;;5059579;28;45503;-70
2023/12/07 06:25:54;;;;;;;;;23.25;19.25;;;;;;;;5062143;28;45290;-70
2023/12/07 06:28:19;;;;;;;;;31.25;25.75;;;;;;;;5061213;28;45465;-70
2023/12/07 06:30:44;;;;;;;;;29.00;20.00;;;;;;;;5062002;28;45603;-71
2023/12/07 06:33:10;;;;;;;;;23.25;21.50;;;;;;;;5060632;28;45362;-70
2023/12/07 06:35:35;;;;;;;;;25.25;20.50;;;;;;;;5061827;28;45302;-70
2023/12/07 06:38:00;;;;;;;;;27.75;22.75;;;;;;;;5061466;28;45343;-72
2023/12/07 06:40:25;;;;;;;;;23.25;21.75;;;;;;;;5062210;28;45206;-70
2023/12/07 06:42:50;;;;;;;;;29.75;26.50;;;;;;;;5060887;28;45401;-70
2023/12/07 06:45:16;;;;;;;;;28.25;21.50;;;;;;;;5061994;28;45140;-69
2023/12/07 06:47:44;;;;;;;;;31.00;24.25;;;;;;;;5060057;28;45366;-71
2023/12/07 06:50:10;;;;;;;;;28.25;21.00;;;;;;;;5062019;28;45457;-70
2023/12/07 06:52:35;;;;;;;;;24.25;23.00;;;;;;;;5057616;28;46174;-72
2023/12/07 06:55:01;;;;;;;;;23.25;20.75;;;;;;;;5061958;28;45294;-72
2023/12/07 06:57:26;;;;;;;;;26.00;22.00;;;;;;;;5060993;28;45548;-72
2023/12/07 06:59:51;;;;;;;;;22.50;21.25;;;;;;;;5061776;28;45420;-72
2023/12/07 07:02:16;;;;;;;;;27.50;20.50;;;;;;;;5059949;28;45294;-72
2023/12/07 07:04:41;;;;;;;;;26.75;20.00;;;;;;;;5052765;28;45834;-70
2023/12/07 07:07:06;;;;;;;;;25.25;21.00;;;;;;;;5053150;28;45260;-71
2023/12/07 07:09:32;;;;;;;;;26.00;20.50;;;;;;;;5059435;28;45236;-72
2023/12/07 07:11:57;;;;;;;;;23.50;19.25;;;;;;;;5056275;28;45282;-71
2023/12/07 07:14:22;;;;;;;;;25.50;19.00;;;;;;;;5060512;28;45891;-71
2023/12/07 07:16:47;;;;;;;;;22.75;20.00;;;;;;;;5057108;28;45286;-71
2023/12/07 07:19:13;;;;;;;;;23.00;20.25;;;;;;;;5061106;28;45389;-71
2023/12/07 07:21:38;;;;;;;;;25.75;22.25;;;;;;;;5055780;28;45547;-71
2023/12/07 07:24:03;;;;;;;;;23.50;19.25;;;;;;;;5056204;28;45274;-71
2023/12/07 07:26:29;;;;;;;;;31.50;24.50;;;;;;;;5050899;28;45448;-70
2023/12/07 07:28:54;;;;;;;;;58.25;43.00;;;;;;;;5060247;28;45290;-71
2023/12/07 07:31:19;;;;;;;;;70.50;53.00;;;;;;;;5049384;28;45538;-71
2023/12/07 07:33:46;;;;;;;;;56.25;43.50;;;;;;;;5058557;28;45209;-71
2023/12/07 07:36:12;;;;;;;;;30.00;24.50;;;;;;;;5056977;28;44793;-70
2023/12/07 07:38:37;;;;;;;;;34.25;30.00;;;;;;;;5060321;28;45467;-72
2023/12/07 07:41:03;;;;;;;;;44.50;37.75;;;;;;;;5054899;28;46285;-71
2023/12/07 07:43:28;;;;;;;;;31.50;26.50;;;;;;;;5058830;28;45261;-71
2023/12/07 07:45:53;;;;;;;;;28.50;22.00;;;;;;;;5060617;28;45375;-71
2023/12/07 07:48:18;;;;;;;;;31.50;24.50;;;;;;;;5060421;28;45150;-71
2023/12/07 07:50:44;;;;;;;;;30.00;23.50;;;;;;;;5060437;28;45156;-71
2023/12/07 07:53:09;;;;;;;;;42.75;38.00;;;;;;;;5060281;28;45289;-72
2023/12/07 07:55:34;;;;;;;;;34.75;27.00;;;;;;;;5060639;28;45266;-70
2023/12/07 07:58:00;;;;;;;;;20.25;19.75;;;;;;;;5059891;28;45126;-70
2023/12/07 08:00:28;;;;;;;;;27.75;24.00;;;;;;;;5059607;28;46107;-71
2023/12/07 08:02:53;;;;;;;;;26.75;21.75;;;;;;;;5059835;28;45473;-68
2023/12/07 08:05:18;;;;;;;;;28.50;23.50;;;;;;;;5074953;28;45241;-68
2023/12/07 08:07:43;;;;;;;;;28.00;19.50;;;;;;;;5060214;28;45283;-68
2023/12/07 08:10:08;;;;;;;;;21.00;16.50;;;;;;;;5060271;28;44913;-68
2023/12/07 08:12:35;;;;;;;;;52.25;44.00;;;;;;;;5058658;28;45407;-69
2023/12/07 08:15:00;;;;;;;;;27.25;23.25;;;;;;;;5054870;28;45315;-69
2023/12/07 08:17:26;;;;;;;;;22.00;21.25;;;;;;;;5059916;28;45447;-70
2023/12/07 08:19:51;;;;;;;;;18.00;14.25;;;;;;;;5058792;28;46308;-70
2023/12/07 08:22:16;;;;;;;;;23.00;22.00;;;;;;;;5060245;28;45370;-70
2023/12/07 08:24:41;;;;;;;;;24.00;21.00;;;;;;;;5060377;28;45315;-70
2023/12/07 08:27:07;;;;;;;;;32.50;24.25;;;;;;;;5059446;28;45270;-70
2023/12/07 08:29:32;;;;;;;;;20.25;17.25;;;;;;;;5058676;28;47120;-71
2023/12/07 08:31:57;;;;;;;;;20.50;16.75;;;;;;;;5059527;28;44776;-70
2023/12/07 08:34:24;;;;;;;;;23.00;17.25;;;;;;;;5059855;28;45504;-71
2023/12/07 08:36:49;;;;;;;;;27.25;21.50;;;;;;;;5057632;28;45875;-70
2023/12/07 08:39:14;;;;;;;;;18.25;17.25;;;;;;;;5059767;28;46307;-70
2023/12/07 08:41:39;;;;;;;;;23.50;19.50;;;;;;;;5059674;28;45281;-70
2023/12/07 08:44:05;;;;;;;;;17.75;17.00;;;;;;;;5056038;28;45350;-71
2023/12/07 08:46:30;;;;;;;;;21.25;21.25;;;;;;;;5058403;28;45841;-70
2023/12/07 08:48:56;;;;;;;;;18.00;16.75;;;;;;;;5059195;28;45298;-70
2023/12/07 08:51:21;;;;;;;;;22.25;18.00;;;;;;;;5059958;28;45350;-70
2023/12/07 08:53:46;;;;;;;;;23.00;19.50;;;;;;;;5059385;28;44806;-70
2023/12/07 08:56:12;;;;;;;;;22.00;21.00;;;;;;;;5060275;28;45309;-70
2023/12/07 08:58:38;;;;;;;;;19.00;18.25;;;;;;;;5074642;28;47868;-70
2023/12/07 09:01:03;;;;;;;;;20.00;18.50;;;;;;;;5058679;28;44896;-70
2023/12/07 09:03:31;;;;;;;;;21.00;18.00;;;;;;;;5059467;28;45321;-70
2023/12/07 09:05:57;;;;;;;;;15.25;14.00;;;;;;;;5058405;28;46660;-70
2023/12/07 09:08:22;;;;;;;;;23.75;19.50;;;;;;;;5059003;28;45248;-70
2023/12/07 09:10:49;;;;;;;;;22.75;18.00;;;;;;;;5059868;28;45238;-71
2023/12/07 09:13:14;;;;;;;;;18.75;17.00;;;;;;;;5058666;28;45279;-70
2023/12/07 09:15:39;;;;;;;;;21.50;17.25;;;;;;;;5059366;28;45647;-71
2023/12/07 09:18:05;;;;;;;;;21.50;19.75;;;;;;;;5058754;28;45250;-71
2023/12/07 09:20:30;;;;;;;;;21.50;14.25;;;;;;;;5058979;28;45339;-70
2023/12/07 09:22:57;;;;;;;;;23.00;18.00;;;;;;;;5055503;28;45434;-71
2023/12/07 09:25:22;;;;;;;;;19.25;15.50;;;;;;;;5059131;28;44836;-71
2023/12/07 09:27:47;;;;;;;;;18.00;18.00;;;;;;;;5058463;28;45328;-71
2023/12/07 09:30:13;;;;;;;;;18.75;13.50;;;;;;;;5059516;28;45526;-71
2023/12/07 09:32:42;;;;;;;;;21.75;17.75;;;;;;;;5058970;28;45297;-71
2023/12/07 09:35:18;;;;;;;;;27.50;18.75;;;;;;;;5059258;28;45289;-71
2023/12/07 09:37:44;;;;;;;;;17.25;16.00;;;;;;;;5058377;28;46099;-71
2023/12/07 09:40:13;;;;;;;;;18.25;13.25;;;;;;;;5059795;28;45283;-72
2023/12/07 09:42:41;;;;;;;;;25.25;18.00;;;;;;;;5058660;28;45433;-71
2023/12/07 09:45:06;;;;;;;;;18.00;18.00;;;;;;;;5059523;28;45417;-72
2023/12/07 09:47:33;;;;;;;;;15.50;12.75;;;;;;;;5058608;28;45601;-72
2023/12/07 09:49:59;;;;;;;;;14.75;14.75;;;;;;;;5059464;28;45280;-72
2023/12/07 09:52:24;;;;;;;;;17.75;14.25;;;;;;;;5058613;28;44828;-72
2023/12/07 09:54:51;;;;;;;;;19.25;17.00;;;;;;;;5058915;28;45248;-71
2023/12/07 09:57:16;;;;;;;;;17.50;14.00;;;;;;;;5057941;28;45517;-71
2023/12/07 09:59:41;;;;;;;;;16.25;13.50;;;;;;;;5059241;28;45237;-72
2023/12/07 10:02:07;;;;;;;;;12.25;12.00;;;;;;;;5058530;28;45398;-72
2023/12/07 10:04:33;;;;;;;;;22.00;18.50;;;;;;;;5059056;28;45209;-72
2023/12/07 10:06:58;;;;;;;;;13.50;12.25;;;;;;;;5058344;28;45310;-72
2023/12/07 10:09:23;;;;;;;;;15.75;13.25;;;;;;;;5059105;28;44784;-71
2023/12/07 10:11:49;;;;;;;;;16.50;15.00;;;;;;;;5057868;28;45322;-72
2023/12/07 10:14:14;;;;;;;;;19.50;15.00;;;;;;;;5057053;28;46307;-72
2023/12/07 10:16:52;;;;;;;;;35.00;29.50;;;;;;;;5057757;28;45526;-71
2023/12/07 10:19:21;;;;;;;;;3.75;2.50;;;;;;;;5059010;28;45201;-71
2023/12/07 10:21:46;;;;;;;;;17.25;14.75;;;;;;;;5058232;28;45240;-72
2023/12/07 10:24:11;;;;;;;;;24.75;20.50;;;;;;;;5058820;28;44782;-71
2023/12/07 10:26:38;;;;;;;;;13.50;13.50;;;;;;;;5057151;28;45324;-72
2023/12/07 10:29:06;;;;;;;;;14.25;13.00;;;;;;;;5057231;28;45510;-71
2023/12/07 10:31:32;;;;;;;;;23.25;21.75;;;;;;;;5057079;28;45287;-72
2023/12/07 10:33:58;;;;;;;;;14.50;14.50;;;;;;;;5058018;28;45367;-71
2023/12/07 10:36:23;;;;;;;;;23.25;19.75;;;;;;;;5054962;28;46625;-71
2023/12/07 10:38:50;;;;;;;;;14.50;14.00;;;;;;;;5059086;28;45520;-72
2023/12/07 10:41:18;;;;;;;;;15.75;14.75;;;;;;;;5061978;28;45362;-71
2023/12/07 10:43:44;;;;;;;;;22.25;18.00;;;;;;;;5061059;28;45292;-71
2023/12/07 10:46:12;;;;;;;;;20.50;17.25;;;;;;;;5061644;28;45641;-71
2023/12/07 10:48:38;;;;;;;;;40.75;33.75;;;;;;;;5061520;28;44666;-72
2023/12/07 10:51:08;;;;;;;;;20.75;16.00;;;;;;;;5061990;28;45206;-72
2023/12/07 10:53:40;;;;;;;;;15.00;12.75;;;;;;;;5059703;28;47259;-72
2023/12/07 10:56:07;;;;;;;;;30.75;29.50;;;;;;;;5059717;28;45535;-72
2023/12/07 10:58:35;;;;;;;;;14.50;10.25;;;;;;;;5061226;28;45322;-71
2023/12/07 11:01:01;;;;;;;;;17.75;14.50;;;;;;;;5061596;28;45353;-71
2023/12/07 11:03:27;;;;;;;;;65.00;50.00;;;;;;;;5051160;28;46919;-71
2023/12/07 11:05:52;;;;;;;;;13.75;10.00;;;;;;;;5060699;28;45259;-72
2023/12/07 11:08:29;;;;;;;;;15.50;14.75;;;;;;;;5061042;28;45215;-72
2023/12/07 11:11:00;;;;;;;;;17.75;15.75;;;;;;;;5061431;28;45289;-70
2023/12/07 11:13:28;;;;;;;;;20.75;20.00;;;;;;;;5059974;28;45385;-69
2023/12/07 11:15:53;;;;;;;;;14.75;13.50;;;;;;;;5061134;28;45474;-71
2023/12/07 11:18:19;;;;;;;;;14.25;14.25;;;;;;;;5060689;28;45165;-71
2023/12/07 11:20:46;;;;;;;;;16.25;16.25;;;;;;;;5056493;28;45799;-73
2023/12/07 11:23:11;;;;;;;;;10.75;9.50;;;;;;;;5055946;28;45460;-72
2023/12/07 11:25:42;;;;;;;;;17.50;16.25;;;;;;;;5060108;28;47142;-72
2023/12/07 11:28:09;;;;;;;;;13.25;11.75;;;;;;;;5056759;28;45355;-73
2023/12/07 11:30:37;;;;;;;;;18.25;15.25;;;;;;;;5061399;28;44669;-74
2023/12/07 11:33:05;;;;;;;;;18.25;13.25;;;;;;;;5060734;28;45472;-74
2023/12/07 11:35:31;;;;;;;;;15.00;12.75;;;;;;;;5061080;28;45445;-74
2023/12/07 11:38:03;;;;;;;;;13.00;10.00;;;;;;;;5060546;28;45259;-74
2023/12/07 11:40:29;;;;;;;;;15.25;13.00;;;;;;;;5059390;28;45304;-73
2023/12/07 11:42:54;;;;;;;;;10.25;10.00;;;;;;;;5052222;28;46732;-75
2023/12/07 11:45:38;;;;;;;;;16.50;15.75;;;;;;;;5059691;28;46609;-74
2023/12/07 11:48:10;;;;;;;;;18.75;14.00;;;;;;;;5061345;28;44748;-73
2023/12/07 11:50:35;;;;;;;;;16.00;11.25;;;;;;;;5062311;28;45408;-75
2023/12/07 11:53:00;;;;;;;;;13.00;13.00;;;;;;;;5061516;28;45275;-73
2023/12/07 11:55:25;;;;;;;;;14.50;14.00;;;;;;;;5060685;28;45203;-73
2023/12/07 11:57:51;;;;;;;;;21.75;19.00;;;;;;;;5060238;28;45540;-74
2023/12/07 12:00:17;;;;;;;;;16.75;15.75;;;;;;;;5059259;28;45682;-74
2023/12/07 12:02:42;;;;;;;;;15.25;14.25;;;;;;;;5059798;28;45046;-73
2023/12/07 12:05:08;;;;;;;;;17.75;15.75;;;;;;;;5060806;28;46650;-72
2023/12/07 12:07:34;;;;;;;;;18.75;16.00;;;;;;;;5045626;28;45597;-72
2023/12/07 12:10:03;;;;;;;;;15.50;12.50;;;;;;;;5059782;28;45319;-73
2023/12/07 12:12:29;;;;;;;;;10.50;8.50;;;;;;;;5059808;28;45548;-73
2023/12/07 12:14:54;;;;;;;;;20.50;13.00;;;;;;;;5058985;28;46997;-75
2023/12/07 12:17:20;;;;;;;;;18.25;15.75;;;;;;;;5060100;28;45475;-73
2023/12/07 12:19:45;;;;;;;;;16.75;14.00;;;;;;;;5060653;28;45192;-73
2023/12/07 12:22:10;;;;;;;;;17.00;15.00;;;;;;;;5059966;28;45167;-73
2023/12/07 12:24:36;;;;;;;;;13.75;12.75;;;;;;;;5060418;28;45128;-72
2023/12/07 12:27:02;;;;;;;;;22.25;13.75;;;;;;;;5059628;28;45341;-73
2023/12/07 12:29:27;;;;;;;;;21.00;18.50;;;;;;;;5060114;28;45215;-72
2023/12/07 12:31:52;;;;;;;;;14.25;13.75;;;;;;;;5059943;28;45374;-72
2023/12/07 12:34:20;;;;;;;;;13.50;12.00;;;;;;;;5058666;28;47327;-72
2023/12/07 12:36:45;;;;;;;;;13.25;10.75;;;;;;;;5059869;28;45275;-72
2023/12/07 12:39:11;;;;;;;;;12.75;12.75;;;;;;;;5060208;28;45330;-72
2023/12/07 12:41:36;;;;;;;;;20.75;16.25;;;;;;;;5058108;28;45950;-73
2023/12/07 12:44:01;;;;;;;;;21.00;20.00;;;;;;;;5059430;28;45189;-72
2023/12/07 12:46:27;;;;;;;;;21.25;20.50;;;;;;;;5060101;28;45345;-72
2023/12/07 12:48:53;;;;;;;;;18.00;14.25;;;;;;;;5059441;28;45137;-72
2023/12/07 12:51:18;;;;;;;;;19.00;16.25;;;;;;;;5053776;28;45243;-72
2023/12/07 12:53:46;;;;;;;;;18.75;18.25;;;;;;;;5056946;28;45300;-72
2023/12/07 12:56:12;;;;;;;;;19.00;15.25;;;;;;;;5059763;28;45416;-72
2023/12/07 12:58:37;;;;;;;;;17.00;16.00;;;;;;;;5058606;28;45476;-72
2023/12/07 13:01:03;;;;;;;;;26.50;22.00;;;;;;;;5056248;28;44879;-72
2023/12/07 13:03:28;;;;;;;;;16.25;16.25;;;;;;;;5058815;28;45526;-72
2023/12/07 13:05:54;;;;;;;;;15.50;12.75;;;;;;;;5055390;28;45365;-72
2023/12/07 13:08:19;;;;;;;;;19.75;14.75;;;;;;;;5059412;28;45441;-72
2023/12/07 13:10:44;;;;;;;;;26.00;22.75;;;;;;;;5059681;28;45353;-72
2023/12/07 13:13:09;;;;;;;;;13.50;13.00;;;;;;;;5058842;28;45341;-72
2023/12/07 13:15:34;;;;;;;;;27.00;19.00;;;;;;;;5059532;28;45570;-72
2023/12/07 13:17:59;;;;;;;;;14.50;14.00;;;;;;;;5059321;28;45414;-72
2023/12/07 13:20:25;;;;;;;;;17.25;13.00;;;;;;;;5059196;28;45455;-72
2023/12/07 13:22:50;;;;;;;;;11.75;8.25;;;;;;;;5058085;28;45395;-72
2023/12/07 13:25:15;;;;;;;;;15.75;13.00;;;;;;;;5059548;28;45259;-72
2023/12/07 13:27:40;;;;;;;;;15.00;13.00;;;;;;;;5054388;28;44853;-72
2023/12/07 13:30:06;;;;;;;;;11.00;10.50;;;;;;;;5059143;28;45258;-72
2023/12/07 13:32:36;;;;;;;;;16.75;10.00;;;;;;;;5053811;28;45282;-73
2023/12/07 13:35:02;;;;;;;;;16.50;13.25;;;;;;;;5058881;28;45426;-72
2023/12/07 13:37:27;;;;;;;;;11.00;9.25;;;;;;;;5057122;28;45352;-73
2023/12/07 13:39:57;;;;;;;;;14.25;12.25;;;;;;;;5063976;28;45889;-73
2023/12/07 13:42:26;;;;;;;;;13.25;12.75;;;;;;;;5058348;28;45429;-73
2023/12/07 13:44:51;;;;;;;;;10.75;10.00;;;;;;;;5059111;28;45177;-72
2023/12/07 13:47:17;;;;;;;;;13.50;10.25;;;;;;;;5058652;28;45606;-72
2023/12/07 13:49:42;;;;;;;;;11.25;10.25;;;;;;;;5059130;28;44711;-72
2023/12/07 13:52:07;;;;;;;;;14.25;13.50;;;;;;;;5056940;28;46909;-73
2023/12/07 13:54:33;;;;;;;;;19.25;14.00;;;;;;;;5059032;28;44957;-72
2023/12/07 13:56:58;;;;;;;;;16.00;14.00;;;;;;;;5058525;28;45284;-72
2023/12/07 13:59:23;;;;;;;;;10.25;9.25;;;;;;;;5058447;28;45409;-72
2023/12/07 14:01:49;;;;;;;;;13.25;11.75;;;;;;;;5058561;28;45882;-72
2023/12/07 14:04:14;;;;;;;;;15.50;14.25;;;;;;;;5058829;28;45298;-73
2023/12/07 14:06:39;;;;;;;;;21.00;16.00;;;;;;;;5058013;28;45333;-73
2023/12/07 14:09:04;;;;;;;;;19.50;16.00;;;;;;;;5059015;28;45835;-72
2023/12/07 14:11:29;;;;;;;;;14.25;13.00;;;;;;;;5061203;28;45652;-72
2023/12/07 14:13:55;;;;;;;;;14.50;13.50;;;;;;;;5061179;28;45338;-72
2023/12/07 14:16:20;;;;;;;;;18.75;16.00;;;;;;;;5062734;28;45430;-72
2023/12/07 14:18:46;;;;;;;;;37.00;27.75;;;;;;;;5060417;28;45425;-72
2023/12/07 14:21:11;;;;;;;;;17.25;15.50;;;;;;;;5060948;28;45345;-72
2023/12/07 14:23:37;;;;;;;;;46.75;38.00;;;;;;;;5059152;28;45328;-72
2023/12/07 14:26:02;;;;;;;;;27.75;23.75;;;;;;;;5061185;28;45365;-72
2023/12/07 14:28:30;;;;;;;;;29.50;22.50;;;;;;;;5059875;28;45383;-72
2023/12/07 14:30:56;;;;;;;;;9.00;8.50;;;;;;;;5060805;28;45343;-72
2023/12/07 14:33:21;;;;;;;;;13.00;9.25;;;;;;;;5061239;28;45524;-72
2023/12/07 14:35:48;;;;;;;;;13.25;12.75;;;;;;;;5062016;28;45325;-72
2023/12/07 14:38:13;;;;;;;;;13.25;10.75;;;;;;;;5060956;28;45290;-72
2023/12/07 14:40:38;;;;;;;;;25.00;20.50;;;;;;;;5061087;28;46019;-72
2023/12/07 14:43:04;;;;;;;;;8.50;7.25;;;;;;;;5063058;28;45639;-72
2023/12/07 14:45:29;;;;;;;;;9.00;8.75;;;;;;;;5060293;28;44771;-72
2023/12/07 14:47:54;;;;;;;;;12.75;7.25;;;;;;;;5061441;28;45244;-74
2023/12/07 14:50:19;;;;;;;;;6.50;6.50;;;;;;;;5060022;28;45463;-73
2023/12/07 14:52:45;;;;;;;;;10.25;8.25;;;;;;;;5061405;28;45285;-72
2023/12/07 14:55:10;;;;;;;;;9.75;8.50;;;;;;;;5060246;28;45387;-73
2023/12/07 14:57:35;;;;;;;;;8.50;4.00;;;;;;;;5061026;28;44843;-72
2023/12/07 15:00:00;;;;;;;;;9.25;7.75;;;;;;;;5061583;28;45522;-72
2023/12/07 15:02:25;;;;;;;;;9.00;8.25;;;;;;;;5061211;28;45200;-72
2023/12/07 15:04:51;;;;;;;;;9.00;8.00;;;;;;;;5061962;28;45405;-72
2023/12/07 15:07:19;;;;;;;;;8.00;8.00;;;;;;;;5061176;28;45181;-72
2023/12/07 15:09:48;;;;;;;;;10.25;8.00;;;;;;;;5060068;28;47001;-72
2023/12/07 15:12:13;;;;;;;;;8.75;8.75;;;;;;;;5061100;28;45318;-72
2023/12/07 15:14:38;;;;;;;;;8.50;8.50;;;;;;;;5061011;28;45413;-72
2023/12/07 15:17:04;;;;;;;;;9.75;8.50;;;;;;;;5060972;28;45662;-73
2023/12/07 15:19:29;;;;;;;;;11.00;9.25;;;;;;;;5061005;28;45376;-73
2023/12/07 15:21:54;;;;;;;;;6.75;6.75;;;;;;;;5059070;28;45365;-73
2023/12/07 15:24:20;;;;;;;;;5.75;4.25;;;;;;;;5062203;28;45506;-70
2023/12/07 15:26:45;;;;;;;;;9.75;7.50;;;;;;;;5061204;28;45524;-73
2023/12/07 15:29:10;;;;;;;;;9.25;7.00;;;;;;;;5062009;28;47841;-74
2023/12/07 15:31:36;;;;;;;;;8.50;7.50;;;;;;;;5056056;28;45223;-73
2023/12/07 15:34:01;;;;;;;;;15.25;8.50;;;;;;;;5060729;28;45295;-73
2023/12/07 15:36:26;;;;;;;;;9.50;7.25;;;;;;;;5061345;28;45472;-73
2023/12/07 15:38:52;;;;;;;;;9.75;8.75;;;;;;;;5060439;28;45653;-73
2023/12/07 15:41:18;;;;;;;;;10.00;8.00;;;;;;;;5061390;28;45169;-73
2023/12/07 15:43:43;;;;;;;;;7.25;6.75;;;;;;;;5060381;28;45222;-73
2023/12/07 15:46:08;;;;;;;;;8.00;8.00;;;;;;;;5059226;28;46633;-73
2023/12/07 15:48:34;;;;;;;;;8.25;7.75;;;;;;;;5075342;28;45415;-73
2023/12/07 15:50:59;;;;;;;;;7.75;7.00;;;;;;;;5061046;28;45267;-73
2023/12/07 15:53:24;;;;;;;;;10.75;9.50;;;;;;;;5075361;28;45263;-73
2023/12/07 15:55:49;;;;;;;;;9.50;8.50;;;;;;;;5061002;28;45278;-73
2023/12/07 15:58:17;;;;;;;;;10.25;7.00;;;;;;;;5059919;28;45445;-73
2023/12/07 16:00:42;;;;;;;;;8.25;6.25;;;;;;;;5060989;28;45319;-73
2023/12/07 16:03:08;;;;;;;;;7.25;7.25;;;;;;;;5060323;28;45352;-73
2023/12/07 16:05:33;;;;;;;;;7.00;7.00;;;;;;;;5062485;28;45224;-73
2023/12/07 16:07:59;;;;;;;;;8.00;8.00;;;;;;;;5061148;28;45344;-73
2023/12/07 16:10:24;;;;;;;;;7.75;7.75;;;;;;;;5066394;28;45480;-73
2023/12/07 16:12:49;;;;;;;;;9.00;9.00;;;;;;;;5059689;28;45426;-72
2023/12/07 16:15:15;;;;;;;;;9.00;8.00;;;;;;;;5058991;28;46759;-72
2023/12/07 16:17:40;;;;;;;;;7.50;6.50;;;;;;;;5075554;28;47055;-72
2023/12/07 16:20:10;;;;;;;;;6.50;6.50;;;;;;;;5060522;28;45342;-72
2023/12/07 16:22:35;;;;;;;;;12.25;8.00;;;;;;;;5059628;28;45446;-72
2023/12/07 16:25:02;;;;;;;;;8.00;6.00;;;;;;;;5060555;28;45211;-72
2023/12/07 16:27:27;;;;;;;;;7.75;7.25;;;;;;;;5074274;28;46998;-72
2023/12/07 16:29:53;;;;;;;;;9.25;7.25;;;;;;;;5059538;28;45240;-73
2023/12/07 16:32:19;;;;;;;;;7.00;7.00;;;;;;;;5058770;28;45530;-73
2023/12/07 16:34:45;;;;;;;;;9.50;6.75;;;;;;;;5058885;28;45215;-71
2023/12/07 16:37:10;;;;;;;;;6.00;6.00;;;;;;;;5058758;28;45395;-73
2023/12/07 16:39:40;;;;;;;;;8.00;8.00;;;;;;;;5057721;28;45358;-72
2023/12/07 16:42:05;;;;;;;;;8.50;7.00;;;;;;;;5048431;28;45265;-72
2023/12/07 16:44:31;;;;;;;;;10.00;8.00;;;;;;;;5059588;28;45547;-72
2023/12/07 16:46:56;;;;;;;;;15.00;10.00;;;;;;;;5059233;28;46765;-73
2023/12/07 16:49:23;;;;;;;;;9.50;8.25;;;;;;;;5059786;28;45566;-72
2023/12/07 16:51:49;;;;;;;;;7.25;6.50;;;;;;;;5060025;28;45393;-73
2023/12/07 16:54:14;;;;;;;;;8.00;7.00;;;;;;;;5059109;28;45508;-72
2023/12/07 16:56:39;;;;;;;;;8.50;6.75;;;;;;;;5059572;28;45342;-72
2023/12/07 16:59:04;;;;;;;;;7.25;7.25;;;;;;;;5059026;28;45259;-72
2023/12/07 17:01:30;;;;;;;;;8.00;6.50;;;;;;;;5050823;28;45394;-72
2023/12/07 17:03:55;;;;;;;;;7.25;6.50;;;;;;;;5057381;28;45338;-72
2023/12/07 17:06:20;;;;;;;;;13.50;8.00;;;;;;;;5059125;28;45221;-72
2023/12/07 17:08:45;;;;;;;;;7.00;7.00;;;;;;;;5058670;28;45279;-72
2023/12/07 17:11:11;;;;;;;;;8.50;7.00;;;;;;;;5059363;28;45205;-71
2023/12/07 17:13:37;;;;;;;;;5.00;5.00;;;;;;;;5056239;28;45511;-72
2023/12/07 17:16:02;;;;;;;;;6.25;6.00;;;;;;;;5059052;28;45157;-71
2023/12/07 17:18:27;;;;;;;;;7.75;6.75;;;;;;;;5058015;28;45272;-71
2023/12/07 17:20:52;;;;;;;;;8.00;7.75;;;;;;;;5060399;28;45552;-72
2023/12/07 17:23:18;;;;;;;;;10.00;7.00;;;;;;;;5058896;28;45536;-72
2023/12/07 17:25:43;;;;;;;;;8.75;7.50;;;;;;;;5059344;28;45406;-71
2023/12/07 17:28:08;;;;;;;;;7.50;7.00;;;;;;;;5057920;28;45388;-71
2023/12/07 17:30:33;;;;;;;;;8.00;8.00;;;;;;;;5059746;28;45505;-72
2023/12/07 17:32:59;;;;;;;;;4.25;4.25;;;;;;;;5058458;28;45056;-72
2023/12/07 17:35:24;;;;;;;;;7.50;6.25;;;;;;;;5054144;28;46950;-74
2023/12/07 17:37:49;;;;;;;;;8.50;6.75;;;;;;;;5050374;28;45246;-74
2023/12/07 17:40:14;;;;;;;;;8.00;7.00;;;;;;;;5058986;28;45180;-74
2023/12/07 17:42:39;;;;;;;;;7.75;6.00;;;;;;;;5058158;28;45413;-74
2023/12/07 17:45:06;;;;;;;;;10.25;8.00;;;;;;;;5058530;28;45188;-74
2023/12/07 17:47:31;;;;;;;;;6.50;6.50;;;;;;;;5056895;28;45537;-74
2023/12/07 17:49:56;;;;;;;;;8.50;7.50;;;;;;;;5058783;28;45313;-75
2023/12/07 17:52:21;;;;;;;;;10.50;6.50;;;;;;;;5057883;28;45402;-75
2023/12/07 17:54:47;;;;;;;;;9.00;8.25;;;;;;;;5058840;28;45584;-75
2023/12/07 17:57:12;;;;;;;;;7.75;7.00;;;;;;;;5058116;28;45526;-74
2023/12/07 17:59:37;;;;;;;;;7.00;4.00;;;;;;;;5058919;28;45689;-75
2023/12/07 18:02:03;;;;;;;;;17.00;15.00;;;;;;;;5058206;28;45356;-74
2023/12/07 18:04:28;;;;;;;;;29.50;26.00;;;;;;;;5057181;28;47621;-75
2023/12/07 18:06:53;;;;;;;;;45.75;36.25;;;;;;;;5057978;28;45159;-75
2023/12/07 18:09:18;;;;;;;;;57.50;46.25;;;;;;;;5057917;28;45280;-75
2023/12/07 18:11:44;;;;;;;;;10.00;7.00;;;;;;;;5058483;28;44809;-74
2023/12/07 18:14:09;;;;;;;;;13.25;13.25;;;;;;;;5057110;28;45855;-74
2023/12/07 18:16:35;;;;;;;;;11.50;9.25;;;;;;;;5057339;28;45772;-74
2023/12/07 18:19:00;;;;;;;;;32.00;29.75;;;;;;;;5056717;28;45434;-74
2023/12/07 18:21:25;;;;;;;;;18.25;12.75;;;;;;;;5058624;28;45290;-74
2023/12/07 18:23:50;;;;;;;;;16.25;16.25;;;;;;;;5056095;28;45737;-74
2023/12/07 18:26:16;;;;;;;;;12.75;12.75;;;;;;;;5058187;28;45225;-73